createdAt,value
2022-08-18T00:01:19.426Z,7.05
2022-08-18T00:03:56.143Z,7.20
2022-08-18T00:06:30.294Z,6.88
2022-08-18T00:08:59.692Z,6.40
2022-08-18T00:11:28.535Z,6.50
2022-08-18T00:14:21.740Z,6.32
2022-08-18T00:16:52.455Z,5.75
2022-08-18T00:19:19.310Z,5.83
2022-08-18T00:21:46.080Z,6.70
2022-08-18T00:24:12.841Z,6.63
2022-08-18T00:26:39.620Z,6.07
2022-08-18T00:29:08.031Z,6.15
2022-08-18T00:31:34.997Z,6.10
2022-08-18T00:34:01.920Z,6.20
2022-08-18T00:36:29.057Z,5.63
2022-08-18T00:38:55.785Z,5.63
2022-08-18T00:41:26.644Z,5.78
2022-08-18T00:43:55.509Z,5.85
2022-08-18T00:46:27.421Z,5.95
2022-08-18T00:48:54.639Z,5.72
2022-08-18T00:51:29.335Z,6.15
2022-08-18T00:54:07.398Z,5.50
2022-08-18T00:56:38.983Z,6.22
2022-08-18T00:59:22.228Z,5.43
2022-08-18T01:01:51.401Z,6.20
2022-08-18T01:04:29.896Z,5.57
2022-08-18T01:07:01.812Z,5.82
2022-08-18T01:09:28.882Z,5.80
2022-08-18T01:11:56.559Z,6.57
2022-08-18T01:14:23.960Z,6.28
2022-08-18T01:17:10.185Z,6.15
2022-08-18T01:19:56.525Z,6.15
2022-08-18T01:22:32.151Z,5.68
2022-08-18T01:25:19.175Z,6.30
2022-08-18T01:27:46.049Z,6.20
2022-08-18T01:30:18.104Z,6.47
2022-08-18T01:32:48.448Z,5.50
2022-08-18T01:35:17.903Z,6.40
2022-08-18T01:37:44.981Z,5.85
2022-08-18T01:41:21.867Z,5.93
2022-08-18T01:43:03.654Z,6.20
2022-08-18T01:45:33.304Z,6.13
2022-08-18T01:48:00.683Z,5.87
2022-08-18T01:50:27.804Z,5.68
2022-08-18T01:52:54.629Z,5.82
2022-08-18T01:55:21.771Z,5.45
2022-08-18T01:57:48.836Z,5.63
2022-08-18T02:00:18.630Z,5.60
2022-08-18T02:02:47.069Z,5.75
2022-08-18T02:05:33.492Z,5.90
2022-08-18T02:08:00.408Z,6.22
2022-08-18T02:10:27.932Z,5.63
2022-08-18T02:12:54.862Z,6.20
2022-08-18T02:15:21.665Z,5.80
2022-08-18T02:17:48.543Z,5.78
2022-08-18T02:20:17.841Z,6.07
2022-08-18T02:22:46.625Z,6.10
2022-08-18T02:25:14.572Z,5.85
2022-08-18T02:27:41.653Z,5.93
2022-08-18T02:30:11.298Z,5.60
2022-08-18T02:32:38.517Z,5.50
2022-08-18T02:35:08.272Z,5.82
2022-08-18T02:37:38.813Z,5.70
2022-08-18T02:40:15.356Z,5.68
2022-08-18T02:42:43.065Z,5.55
2022-08-18T02:45:10.592Z,5.72
2022-08-18T02:47:37.362Z,6.13
2022-08-18T02:50:04.978Z,5.63
2022-08-18T02:52:34.721Z,5.65
2022-08-18T02:55:02.302Z,5.80
2022-08-18T02:57:30.351Z,5.45
2022-08-18T02:59:57.308Z,5.25
2022-08-18T03:02:27.014Z,5.20
2022-08-18T03:04:53.896Z,5.45
2022-08-18T03:07:20.724Z,5.10
2022-08-18T03:09:47.524Z,4.97
2022-08-18T03:12:14.268Z,5.15
2022-08-18T03:14:41.087Z,5.28
2022-08-18T03:17:09.239Z,4.53
2022-08-18T03:19:36.781Z,5.32
2022-08-18T03:22:05.901Z,5.65
2022-08-18T03:24:53.940Z,5.65
2022-08-18T03:27:20.719Z,5.00
2022-08-18T03:29:47.452Z,5.63
2022-08-18T03:32:14.195Z,5.35
2022-08-18T03:34:42.721Z,5.13
2022-08-18T03:37:09.839Z,4.60
2022-08-18T03:39:36.790Z,5.05
2022-08-18T03:42:03.741Z,5.22
2022-08-18T03:44:33.319Z,5.20
2022-08-18T03:47:03.093Z,5.40
2022-08-18T03:49:30.493Z,5.15
2022-08-18T03:52:00.618Z,4.78
2022-08-18T03:54:28.227Z,4.80
2022-08-18T03:56:55.858Z,5.70
2022-08-18T03:59:25.474Z,4.90
2022-08-18T04:01:55.008Z,5.23
2022-08-18T04:04:25.983Z,4.90
2022-08-18T04:06:58.363Z,4.80
2022-08-18T04:09:27.941Z,4.78
2022-08-18T04:11:55.925Z,5.18
2022-08-18T04:14:25.044Z,5.00
2022-08-18T04:16:52.314Z,4.80
2022-08-18T04:19:26.477Z,5.32
2022-08-18T04:21:55.614Z,4.85
2022-08-18T04:24:22.884Z,4.88
2022-08-18T04:26:50.323Z,5.13
2022-08-18T04:29:21.094Z,5.30
2022-08-18T04:31:50.007Z,4.60
2022-08-18T04:34:17.276Z,4.78
2022-08-18T04:36:44.771Z,5.25
2022-08-18T04:39:13.281Z,5.15
2022-08-18T04:41:43.530Z,4.63
2022-08-18T04:46:44.494Z,5.28
2022-08-18T04:49:11.954Z,5.72
2022-08-18T04:52:37.935Z,5.30
2022-08-18T04:54:29.489Z,5.63
2022-08-18T04:56:56.269Z,5.13
2022-08-18T04:59:23.266Z,5.78
2022-08-18T05:01:49.997Z,5.28
2022-08-18T05:04:17.856Z,5.38
2022-08-18T05:06:46.048Z,6.10
2022-08-18T05:09:16.904Z,5.65
2022-08-18T05:11:50.767Z,5.50
2022-08-18T05:14:18.384Z,5.75
2022-08-18T05:16:48.581Z,7.22
2022-08-18T05:19:22.533Z,6.03
2022-08-18T05:21:53.772Z,5.35
2022-08-18T05:24:33.722Z,4.85
2022-08-18T05:27:04.868Z,4.57
2022-08-18T05:29:42.001Z,4.53
2022-08-18T05:32:41.014Z,4.47
2022-08-18T05:35:13.523Z,4.63
2022-08-18T05:38:06.671Z,4.30
2022-08-18T05:40:34.645Z,3.95
2022-08-18T05:43:02.394Z,4.10
2022-08-18T05:45:29.447Z,3.95
2022-08-18T05:48:00.273Z,3.90
2022-08-18T05:50:29.059Z,3.67
2022-08-18T05:52:59.583Z,4.35
2022-08-18T05:55:59.520Z,4.18
2022-08-18T05:58:34.293Z,4.10
2022-08-18T06:01:05.038Z,4.32
2022-08-18T06:03:45.244Z,3.85
2022-08-18T06:06:19.871Z,3.90
2022-08-18T06:09:17.040Z,4.47
2022-08-18T06:11:44.449Z,4.38
2022-08-18T06:14:13.341Z,4.05
2022-08-18T06:17:04.192Z,3.92
2022-08-18T06:19:43.135Z,4.15
2022-08-18T06:22:31.420Z,4.30
2022-08-18T06:25:16.160Z,4.55
2022-08-18T06:27:59.998Z,4.40
2022-08-18T06:30:41.752Z,4.30
2022-08-18T06:33:36.452Z,4.38
2022-08-18T06:36:14.312Z,4.57
2022-08-18T06:39:26.792Z,4.72
2022-08-18T06:41:53.851Z,4.60
2022-08-18T06:44:32.411Z,4.90
2022-08-18T06:47:11.460Z,4.93
2022-08-18T06:49:47.878Z,4.55
2022-08-18T06:52:26.395Z,4.68
2022-08-18T06:54:55.606Z,5.13
2022-08-18T06:57:53.458Z,4.43
2022-08-18T07:00:24.410Z,4.88
2022-08-18T07:03:01.993Z,5.40
2022-08-18T07:05:31.520Z,4.95
2022-08-18T07:08:01.348Z,4.80
2022-08-18T07:10:37.625Z,5.20
2022-08-18T07:13:13.408Z,4.90
2022-08-18T07:15:40.824Z,4.28
2022-08-18T07:18:14.685Z,4.45
2022-08-18T07:20:53.944Z,4.95
2022-08-18T07:23:27.527Z,4.72
2022-08-18T07:26:11.362Z,5.07
2022-08-18T07:29:14.983Z,4.75
2022-08-18T07:31:51.643Z,4.82
2022-08-18T07:34:28.618Z,4.80
2022-08-18T07:37:02.851Z,4.70
2022-08-18T07:39:29.605Z,4.63
2022-08-18T07:42:10.958Z,4.57
2022-08-18T07:44:53.411Z,4.55
2022-08-18T07:47:52.618Z,4.20
2022-08-18T07:50:36.354Z,4.63
2022-08-18T07:53:36.849Z,4.70
2022-08-18T07:56:43.479Z,4.80
2022-08-18T07:59:36.020Z,4.50
2022-08-18T08:02:11.871Z,4.40
2022-08-18T08:04:42.445Z,4.45
2022-08-18T08:07:25.030Z,4.60
2022-08-18T08:10:28.214Z,5.03
2022-08-18T08:13:12.055Z,4.60
2022-08-18T08:15:39.808Z,4.60
2022-08-18T08:18:16.957Z,4.45
2022-08-18T08:20:51.018Z,4.80
2022-08-18T08:23:25.554Z,5.10
2022-08-18T08:26:19.488Z,4.32
2022-08-18T08:29:01.841Z,4.50
2022-08-18T08:31:38.191Z,4.35
2022-08-18T08:34:34.325Z,4.90
2022-08-18T08:37:03.984Z,3.97
2022-08-18T08:39:39.499Z,4.53
2022-08-18T08:42:30.464Z,4.78
2022-08-18T08:45:05.747Z,4.68
2022-08-18T08:48:06.603Z,4.28
2022-08-18T08:50:41.586Z,4.95
2022-08-18T08:53:18.219Z,4.22
2022-08-18T08:55:50.813Z,4.30
2022-08-18T08:58:49.370Z,4.60
2022-08-18T09:01:45.939Z,4.60
2022-08-18T09:04:39.375Z,4.20
2022-08-18T09:07:43.068Z,4.40
2022-08-18T09:10:09.761Z,5.18
2022-08-18T09:12:58.045Z,4.40
2022-08-18T09:15:45.064Z,4.40
2022-08-18T09:18:35.879Z,4.32
2022-08-18T09:21:18.553Z,4.40
2022-08-18T09:23:50.260Z,4.10
2022-08-18T09:26:41.168Z,4.20
2022-08-18T09:29:27.264Z,4.40
2022-08-18T09:32:18.943Z,4.25
2022-08-18T09:34:48.397Z,4.50
2022-08-18T09:37:27.392Z,4.32
2022-08-18T09:40:33.400Z,4.35
2022-08-18T09:43:12.557Z,4.47
2022-08-18T09:45:49.476Z,4.30
2022-08-18T09:48:28.391Z,4.68
2022-08-18T09:51:15.715Z,4.55
2022-08-18T09:53:52.270Z,4.43
2022-08-18T09:56:54.144Z,4.22
2022-08-18T09:59:34.902Z,4.97
2022-08-18T10:02:18.782Z,5.00
2022-08-18T10:04:50.985Z,4.63
2022-08-18T10:07:43.239Z,4.13
2022-08-18T10:11:00.958Z,4.65
2022-08-18T10:13:18.559Z,4.65
2022-08-18T10:16:10.434Z,4.80
2022-08-18T10:18:51.132Z,4.68
2022-08-18T10:21:31.497Z,4.55
2022-08-18T10:26:56.150Z,4.80
2022-08-18T10:31:55.611Z,4.97
2022-08-18T10:34:51.617Z,4.93
2022-08-18T10:37:37.362Z,4.68
2022-08-18T10:43:45.738Z,4.93
2022-08-18T10:46:30.663Z,4.80
2022-08-18T10:49:12.370Z,4.90
2022-08-18T10:52:00.960Z,5.00
2022-08-18T10:54:51.881Z,5.10
2022-08-18T10:57:46.986Z,5.22
2022-08-18T11:00:19.590Z,5.75
2022-08-18T11:06:14.441Z,4.95
2022-08-18T11:08:55.187Z,4.80
2022-08-18T11:11:40.944Z,5.77
2022-08-18T11:14:41.277Z,5.22
2022-08-18T11:17:31.493Z,4.90
2022-08-18T11:20:01.363Z,4.80
2022-08-18T11:22:33.153Z,4.57
2022-08-18T11:25:03.236Z,5.45
2022-08-18T11:27:37.668Z,5.32
2022-08-18T11:30:09.743Z,6.28
2022-08-18T11:32:55.400Z,5.80
2022-08-18T11:35:30.791Z,5.53
2022-08-18T11:38:05.356Z,6.35
2022-08-18T11:43:41.235Z,5.85
2022-08-18T11:46:39.080Z,5.40
2022-08-18T11:49:26.434Z,5.63
2022-08-18T11:52:03.018Z,6.10
2022-08-18T11:54:39.373Z,6.25
2022-08-18T11:57:46.159Z,6.07
2022-08-18T12:00:42.639Z,6.90
2022-08-18T12:03:30.459Z,6.15
2022-08-18T12:06:19.373Z,5.95
2022-08-18T12:08:58.995Z,6.63
2022-08-18T12:12:18.318Z,6.13
2022-08-18T12:15:23.897Z,6.20
2022-08-18T12:17:53.583Z,6.70
2022-08-18T12:20:21.967Z,6.82
2022-08-18T12:22:50.383Z,6.63
2022-08-18T12:25:25.430Z,6.07
2022-08-18T12:27:55.860Z,6.88
2022-08-18T12:32:55.747Z,6.22
2022-08-18T12:35:23.395Z,6.93
2022-08-18T12:37:59.405Z,6.70
2022-08-18T12:40:26.759Z,6.95
2022-08-18T12:42:55.777Z,6.43
2022-08-18T12:45:23.380Z,6.65
2022-08-18T12:47:51.559Z,7.13
2022-08-18T12:50:19.608Z,6.65
2022-08-18T12:52:46.890Z,7.00
2022-08-18T12:55:21.604Z,6.63
2022-08-18T12:57:51.977Z,6.65
2022-08-18T13:00:21.298Z,6.40
2022-08-18T13:02:55.493Z,6.70
2022-08-18T13:05:26.314Z,5.93
2022-08-18T13:08:00.322Z,6.35
2022-08-18T13:10:44.809Z,6.30
2022-08-18T13:13:14.495Z,6.57
2022-08-18T13:15:44.545Z,6.50
2022-08-18T13:18:28.780Z,6.00
2022-08-18T13:20:57.580Z,6.38
2022-08-18T13:23:27.447Z,6.25
2022-08-18T13:25:59.316Z,5.65
2022-08-18T13:28:30.753Z,5.40
2022-08-18T13:31:05.502Z,6.25
2022-08-18T13:33:34.405Z,6.38
2022-08-18T13:36:08.536Z,5.47
2022-08-18T13:38:35.304Z,5.55
2022-08-18T13:41:05.016Z,5.75
2022-08-18T13:43:36.103Z,5.97
2022-08-18T13:46:06.151Z,5.57
2022-08-18T13:48:33.500Z,5.18
2022-08-18T13:51:02.184Z,6.10
2022-08-18T13:53:30.047Z,5.80
2022-08-18T13:55:59.218Z,5.65
2022-08-18T13:58:28.162Z,6.28
2022-08-18T14:01:16.230Z,6.13
2022-08-18T14:03:48.186Z,7.50
2022-08-18T14:06:22.509Z,8.00
2022-08-18T14:08:52.928Z,7.18
2022-08-18T14:11:25.890Z,7.40
2022-08-18T14:13:53.164Z,7.53
2022-08-18T14:16:21.115Z,7.13
2022-08-18T14:19:09.491Z,6.60
2022-08-18T14:22:02.008Z,7.32
2022-08-18T14:24:49.332Z,7.28
2022-08-18T14:27:24.191Z,7.45
2022-08-18T14:29:53.424Z,8.18
2022-08-18T14:32:29.494Z,8.70
2022-08-18T14:35:31.908Z,9.07
2022-08-18T14:37:49.408Z,7.63
2022-08-18T14:40:17.410Z,7.10
2022-08-18T14:42:54.153Z,7.85
2022-08-18T14:45:31.225Z,7.47
2022-08-18T14:48:06.753Z,8.23
2022-08-18T14:50:39.188Z,8.20
2022-08-18T14:53:06.968Z,6.95
2022-08-18T14:55:34.633Z,6.93
2022-08-18T14:58:02.724Z,6.70
2022-08-18T15:00:29.743Z,7.30
2022-08-18T15:03:00.988Z,6.50
2022-08-18T15:05:33.848Z,7.00
2022-08-18T15:08:03.764Z,6.13
2022-08-18T15:10:31.315Z,6.70
2022-08-18T15:13:00.519Z,6.78
2022-08-18T15:15:28.027Z,6.60
2022-08-18T15:18:14.828Z,6.63
2022-08-18T15:21:10.354Z,6.82
2022-08-18T15:24:05.175Z,6.63
2022-08-18T15:26:47.397Z,6.47
2022-08-18T15:29:19.158Z,6.78
2022-08-18T15:31:50.821Z,6.13
2022-08-18T15:34:20.678Z,6.78
2022-08-18T15:36:48.253Z,6.88
2022-08-18T15:39:15.535Z,6.97
2022-08-18T15:41:46.570Z,6.60
2022-08-18T15:44:20.077Z,6.72
2022-08-18T15:46:53.090Z,6.57
2022-08-18T15:49:21.879Z,6.72
2022-08-18T15:51:50.173Z,7.18
2022-08-18T15:54:19.556Z,6.90
2022-08-18T15:56:57.755Z,6.65
2022-08-18T15:59:33.032Z,6.40
2022-08-18T16:02:11.970Z,7.13
2022-08-18T16:04:45.157Z,6.90
2022-08-18T16:07:12.103Z,6.40
2022-08-18T16:09:38.872Z,7.15
2022-08-18T16:12:08.788Z,6.95
2022-08-18T16:14:42.694Z,7.45
2022-08-18T16:17:18.346Z,6.68
2022-08-18T16:19:50.900Z,6.88
2022-08-18T16:22:17.690Z,6.90
2022-08-18T16:24:45.123Z,7.00
2022-08-18T16:27:19.580Z,6.80
2022-08-18T16:29:48.426Z,6.65
2022-08-18T16:32:16.751Z,6.70
2022-08-18T16:34:43.583Z,6.82
2022-08-18T16:37:11.008Z,7.20
2022-08-18T16:39:37.919Z,6.95
2022-08-18T16:42:05.050Z,7.38
2022-08-18T16:44:32.715Z,7.03
2022-08-18T16:47:02.455Z,7.05
2022-08-18T16:49:29.508Z,7.18
2022-08-18T16:51:56.832Z,6.90
2022-08-18T16:54:23.587Z,6.95
2022-08-18T16:56:50.351Z,7.00
2022-08-18T16:59:35.495Z,7.13
2022-08-18T17:02:21.108Z,6.80
2022-08-18T17:04:47.860Z,6.85
2022-08-18T17:07:14.613Z,7.15
2022-08-18T17:09:41.519Z,6.78
2022-08-18T17:12:08.491Z,7.43
2022-08-18T17:14:36.815Z,7.53
2022-08-18T17:17:05.695Z,7.28
2022-08-18T17:19:34.856Z,7.60
2022-08-18T17:22:03.656Z,7.85
2022-08-18T17:24:31.854Z,6.90
2022-08-18T17:27:24.181Z,8.98
2022-08-18T17:29:53.577Z,9.23
2022-08-18T17:32:24.603Z,6.45
2022-08-18T17:35:00.785Z,5.38
2022-08-18T17:37:30.023Z,5.03
2022-08-18T17:40:08.712Z,3.63
2022-08-18T17:42:37.271Z,3.88
2022-08-18T17:45:10.471Z,4.63
2022-08-18T17:47:54.100Z,4.35
2022-08-18T17:50:51.531Z,4.78
2022-08-18T17:53:18.695Z,5.10
2022-08-18T17:56:35.392Z,7.40
2022-08-18T17:59:46.181Z,9.05
2022-08-18T18:02:28.863Z,13.57
2022-08-18T18:04:58.728Z,12.30
2022-08-18T18:07:33.612Z,12.25
2022-08-18T18:10:17.369Z,11.77
2022-08-18T18:12:44.152Z,10.93
2022-08-18T18:15:13.768Z,10.63
2022-08-18T18:17:42.964Z,8.57
2022-08-18T18:20:40.622Z,8.07
2022-08-18T18:23:23.375Z,6.78
2022-08-18T18:25:50.720Z,6.70
2022-08-18T18:28:30.411Z,4.85
2022-08-18T18:31:00.170Z,4.73
2022-08-18T18:33:30.314Z,4.20
2022-08-18T18:35:59.558Z,4.03
2022-08-18T18:38:35.057Z,4.65
2022-08-18T18:41:22.071Z,4.05
2022-08-18T18:43:51.117Z,3.95
2022-08-18T18:46:41.324Z,3.50
2022-08-18T18:49:24.825Z,3.63
2022-08-18T18:52:25.299Z,3.17
2022-08-18T18:57:35.233Z,3.70
2022-08-18T19:00:25.300Z,3.97
2022-08-18T19:03:16.870Z,3.83
2022-08-18T19:06:04.426Z,3.00
2022-08-18T19:08:39.632Z,3.40
2022-08-18T19:11:15.069Z,3.30
2022-08-18T19:13:55.141Z,3.40
2022-08-18T19:16:33.663Z,3.78
2022-08-18T19:19:36.923Z,3.50
2022-08-18T19:22:05.034Z,3.55
2022-08-18T19:24:38.783Z,3.50
2022-08-18T19:27:10.708Z,3.63
2022-08-18T19:29:43.396Z,3.65
2022-08-18T19:32:17.752Z,3.72
2022-08-18T19:34:52.614Z,4.20
2022-08-18T19:37:42.598Z,4.13
2022-08-18T19:40:30.372Z,3.45
2022-08-18T19:43:03.863Z,3.22
2022-08-18T19:45:36.915Z,2.97
2022-08-18T19:48:18.248Z,2.65
2022-08-18T19:50:54.248Z,2.63
2022-08-18T19:53:49.271Z,2.40
2022-08-18T19:56:32.723Z,2.38
2022-08-18T19:59:35.018Z,2.40
2022-08-18T20:02:44.188Z,2.25
2022-08-18T20:05:34.163Z,2.72
2022-08-18T20:08:09.984Z,2.97
2022-08-18T20:10:40.327Z,3.00
2022-08-18T20:13:30.407Z,4.25
2022-08-18T20:16:04.641Z,5.07
2022-08-18T20:18:37.672Z,7.80
2022-08-18T20:21:20.180Z,6.15
2022-08-18T20:23:56.192Z,8.73
2022-08-18T20:26:35.969Z,8.23
2022-08-18T20:29:03.156Z,7.50
2022-08-18T20:32:00.419Z,8.43
2022-08-18T20:34:30.911Z,12.15
2022-08-18T20:37:00.128Z,13.80
2022-08-18T20:39:38.866Z,16.17
2022-08-18T20:42:09.926Z,16.95
2022-08-18T20:44:49.973Z,16.25
2022-08-18T20:47:22.559Z,15.85
2022-08-18T20:50:04.349Z,19.55
2022-08-18T20:52:45.761Z,15.70
2022-08-18T20:55:42.110Z,16.50
2022-08-18T20:58:23.514Z,15.20
2022-08-18T21:00:55.576Z,18.40
2022-08-18T21:03:33.687Z,21.20
2022-08-18T21:06:00.569Z,18.98
2022-08-18T21:08:33.030Z,19.80
2022-08-18T21:11:19.235Z,17.75
2022-08-18T21:13:47.807Z,18.80
2022-08-18T21:16:37.740Z,18.75
2022-08-18T21:19:23.618Z,19.88
2022-08-18T21:22:02.071Z,18.38
2022-08-18T21:24:43.035Z,19.83
2022-08-18T21:27:20.739Z,17.58
2022-08-18T21:29:49.794Z,21.33
2022-08-18T21:32:20.013Z,18.95
2022-08-18T21:34:47.473Z,18.35
2022-08-18T21:37:18.050Z,15.00
2022-08-18T21:39:51.843Z,14.50
2022-08-18T21:42:28.066Z,17.52
2022-08-18T21:44:57.255Z,17.75
2022-08-18T21:47:33.074Z,15.77
2022-08-18T21:50:09.125Z,16.30
2022-08-18T21:52:38.708Z,16.23
2022-08-18T21:55:19.563Z,14.17
2022-08-18T21:58:14.303Z,16.25
2022-08-18T22:00:47.121Z,18.65
2022-08-18T22:03:23.779Z,14.93
2022-08-18T22:06:01.702Z,16.83
2022-08-18T22:08:32.891Z,13.55
2022-08-18T22:12:00.451Z,17.27
2022-08-18T22:14:55.084Z,19.25
2022-08-18T22:18:02.687Z,15.23
2022-08-18T22:20:50.229Z,14.00
2022-08-18T22:23:35.571Z,16.17
2022-08-18T22:26:07.374Z,13.45
2022-08-18T22:28:36.752Z,14.10
2022-08-18T22:31:03.558Z,13.82
2022-08-18T22:33:30.353Z,15.40
2022-08-18T22:35:57.480Z,18.77
2022-08-18T22:38:27.680Z,14.38
2022-08-18T22:40:54.445Z,13.63
2022-08-18T22:43:21.945Z,14.93
2022-08-18T22:45:48.700Z,16.98
2022-08-18T22:48:16.547Z,14.00
2022-08-18T22:50:45.952Z,12.80
2022-08-18T22:53:14.729Z,13.20
2022-08-18T22:55:41.537Z,11.10
2022-08-18T22:58:08.852Z,11.10
2022-08-18T23:00:37.814Z,11.23
2022-08-18T23:03:07.121Z,10.73
2022-08-18T23:05:33.904Z,9.52
2022-08-18T23:08:02.537Z,9.95
2022-08-18T23:10:29.293Z,7.82
2022-08-18T23:12:57.373Z,7.00
2022-08-18T23:15:47.401Z,6.37
2022-08-18T23:18:19.630Z,6.90
2022-08-18T23:20:49.299Z,6.05
2022-08-18T23:23:18.006Z,7.03
2022-08-18T23:25:44.816Z,6.35
2022-08-18T23:28:12.455Z,6.20
2022-08-18T23:30:40.823Z,9.00
2022-08-18T23:33:10.348Z,7.68
2022-08-18T23:35:38.357Z,7.50
2022-08-18T23:38:07.486Z,8.18
2022-08-18T23:40:35.076Z,7.00
2022-08-18T23:43:02.396Z,8.65
2022-08-18T23:45:30.396Z,7.43
2022-08-18T23:47:57.618Z,9.95
2022-08-18T23:50:24.640Z,9.85
2022-08-18T23:52:58.597Z,10.52
2022-08-18T23:55:25.652Z,8.68
2022-08-18T23:57:52.466Z,10.13
